Terminal Aerodrome Forecast
Issued by NWS Wichita, KS

Home | Current Version | Previous Version | Graphics & Text | Print | Product List | Glossary On
Versions: 1 2 3 4 5 6 7 8 9 10 11 12 13 14 15 16 17 18 19
000
FTUS43 KICT 211546 AAB
TAFICT
TAF AMD
KICT 211546Z 2116/2212 03012KT 5SM -RA SCT040 OVC080
     FM211700 03012KT P6SM BKN060
     FM212200 02013KT 5SM -RA SCT020 OVC035
     FM220000 01013KT 5SM RA OVC035
     FM220400 01010KT P6SM BKN050=

USA.gov is the U.S. government's official web portal to all federal, state and local government web resources and services.